Albuquerque, NM

10:23 PM MDT on August 29, 2014 (GMT -0600)
Albuquerque International Sunport | Change Station
CLOSE
Current Station
Airport
Location: Albuquerque,
Elevation: 5312 ft
Nearby Weather Stations

Elev 5312 ft 35.04 °N, 106.61 °W | Updated 31 minutes ago

Clear
Clear
72 °F
Feels Like 72 °F
N
8
Wind Variable Wind from East

Today
High -- | Low -- °F
--% Chance of Precip.
Yesterday
High -- | Low -- °F
Precip. -- in
6:37 AM 7:37 PM
Waxing Crescent, 19% visible
Pressure 29.90 in
Visibility 10.0 miles
Clouds Clear
Dew Point 43 °F
Humidity 35%
Rainfall 0.00 in
Snow Depth Not available.
UV 0 out of 12
Pollen 8.30 out of 12
Air Quality Not available.
Flu Activity Not available.
METAR KABQ 300352Z 10007KT 10SM CLR 22/06 A3013 RMK AO2 SLP125 T02220061

More Conditions Fewer Conditions

Pressure 29.90 in
Visibility 10.0 miles
Clouds Clear
Dew Point 43 °F
Humidity 35%
Rainfall 0.00 in
Snow Depth Not available.
UV 0 out of 12
Pollen 8.30 out of 12
Air Quality Not available.
Flu Activity Not available.
METAR KABQ 300352Z 10007KT 10SM CLR 22/06 A3013 RMK AO2 SLP125 T02220061

More Conditions Fewer Conditions

10-Day Weather Forecast

Almanac

Astronomy

Aug. 29, 2014 Rise Set
Actual Time 6:37 AM MDT 7:37 PM MDT
Civil Twilight 6:11 AM MDT 8:03 PM MDT
Nautical Twilight 5:40 AM MDT 8:34 PM MDT
Astronomical Twilight 5:08 AM MDT 9:05 PM MDT
Moon 10:18 AM MDT (8/29) 9:47 PM MDT (8/29)
Length of Visible Light 13h 52m
Length of Day
13h 00m
Tomorrow will be 2m 5s shorter.
Waxing Crescent, 19% of the Moon is Illuminated
Aug 30
Waxing Crescent
Sep 2
First Quarter
Sep 8
Full
Sep 15
Last Quarter
Sep 24
New

Today's Extremes

State Highs State Lows

Community

WunderPhotos

Upload Photos

1,748,451 photos uploaded!

Nearby

Snow Depth

Station Depth Elevation
Quemazon 1 in 9500 ft
Senorita Divide #2 0 in 8600 ft
Santa Fe 1 in 11445 ft
Wesner Springs 1 in 11120 ft
Rice Park 0 in 8460 ft

Earthquake Activity

City Distance Mag. Time & Date
No recent earthquake activity has been reported nearby.
Minimum magnitude displayed is 2.5.

Coastal Water Temperatures

Place Temperature
No Stations Reporting

Nearby Weather Stations